Skip Navigation LinksHome page > Weather > Current weather Skip Navigation Links

Current Weather

Eureka, Nunavut

For information only: do not use for flight planning or navigation.
Latest weather
Observation time Thursday, April 24, 2014 12:00 PM CDT
Local time Thursday, April 24, 2014 12:44 PM CDT
Flight conditions Visual Meteorological Conditions
Winds
Wind speed calm
Visibility 15 mi.
Sky condition
Ceiling unlimited
Sky clear
Temperature -9°F
Dewpoint -20°F
Altimeter 30.47 in.Hg
Derived measurements
Relative humidity 58%
Wind chill -9°F
Density altitude -5530 ft.
Sea-level pressure 30.48 in.Hg
METAR CWEU 241700Z 00000KT 15SM SKC M23/M29 A3047 RMK SLP321

Settings

Location code

InnerDrive.Weather 4.0.4869.0 Release CLR 4.0.30319.18449
Copyright ©2013 Inner Drive Technology. All rights reserved. Portions Copyright ©1986-2013 David Braverman.

Find weather

Site navigation


Skip Navigation Links

Place info

Page info

PayPal - The safer, easier way to pay online!

Return home.

Copyright ©2014 Inner Drive Technology. Purveyors of fine, hand-crafted computer software. Page printed 2014-04-24T17:44:11 UTC.